createdAt,value
2019-01-11T00:02:16.668Z,101433.91
2019-01-11T00:04:45.347Z,101445.29
2019-01-11T00:07:13.949Z,101442.49
2019-01-11T00:09:42.603Z,101445.13
2019-01-11T00:12:11.246Z,101444.17
2019-01-11T00:14:39.890Z,101449.34
2019-01-11T00:17:08.632Z,101456.19
2019-01-11T00:19:37.421Z,101457.03
2019-01-11T00:22:06.381Z,101450.12
2019-01-11T00:24:34.969Z,101444.33
2019-01-11T00:27:03.572Z,101447.50
2019-01-11T00:29:32.276Z,101458.92
2019-01-11T00:32:00.899Z,101452.67
2019-01-11T00:34:29.612Z,101452.67
2019-01-11T00:36:58.333Z,101449.76
2019-01-11T00:39:26.947Z,101449.76
2019-01-11T00:41:55.614Z,101449.88
2019-01-11T00:44:24.188Z,101443.48
2019-01-11T00:46:52.875Z,101449.37
2019-01-11T00:49:21.544Z,101443.09
2019-01-11T00:51:50.176Z,101447.51
2019-01-11T00:54:18.943Z,101438.44
2019-01-11T00:56:47.621Z,101446.52
2019-01-11T00:59:16.283Z,101443.99
2019-01-11T01:01:47.977Z,101443.78
2019-01-11T01:04:20.833Z,101449.06
2019-01-11T01:06:53.584Z,101440.05
2019-01-11T01:09:25.796Z,101449.31
2019-01-11T01:11:54.719Z,101447.33
2019-01-11T01:14:23.344Z,101443.52
2019-01-11T01:16:54.236Z,101442.81
2019-01-11T01:19:22.857Z,101444.49
2019-01-11T01:21:51.570Z,101432.58
2019-01-11T01:24:20.191Z,101434.83
2019-01-11T01:26:50.182Z,101436.37
2019-01-11T01:29:18.956Z,101438.29
2019-01-11T01:31:47.597Z,101437.72
2019-01-11T01:34:16.229Z,101432.08
2019-01-11T01:36:44.863Z,101432.88
2019-01-11T01:39:13.498Z,101422.37
2019-01-11T01:41:42.118Z,101427.29
2019-01-11T01:44:10.819Z,101421.16
2019-01-11T01:46:39.598Z,101426.11
2019-01-11T01:49:08.567Z,101416.17
2019-01-11T01:51:37.288Z,101420.95
2019-01-11T01:54:05.923Z,101419.00
2019-01-11T01:56:34.666Z,101420.70
2019-01-11T01:59:03.252Z,101421.83
2019-01-11T02:01:31.885Z,101424.36
2019-01-11T02:04:00.484Z,101412.23
2019-01-11T02:06:29.105Z,101413.23
2019-01-11T02:08:57.706Z,101418.03
2019-01-11T02:11:26.272Z,101402.05
2019-01-11T02:13:55.596Z,101401.20
2019-01-11T02:16:24.289Z,101393.00
2019-01-11T02:18:52.960Z,101404.92
2019-01-11T02:21:21.691Z,101406.84
2019-01-11T02:23:50.360Z,101402.03
2019-01-11T02:26:18.974Z,101405.14
2019-01-11T02:28:47.604Z,101409.82
2019-01-11T02:31:16.260Z,101409.37
2019-01-11T02:33:44.938Z,101413.35
2019-01-11T02:36:13.543Z,101410.23
2019-01-11T02:38:42.131Z,101411.31
2019-01-11T02:41:10.835Z,101406.02
2019-01-11T02:43:39.467Z,101403.77
2019-01-11T02:46:08.230Z,101402.52
2019-01-11T02:48:36.918Z,101400.02
2019-01-11T02:51:05.595Z,101401.94
2019-01-11T02:53:34.217Z,101396.40
2019-01-11T02:56:02.956Z,101397.59
2019-01-11T02:58:31.617Z,101399.87
2019-01-11T03:01:00.264Z,101397.23
2019-01-11T03:03:28.882Z,101399.63
2019-01-11T03:05:57.658Z,101394.69
2019-01-11T03:08:26.348Z,101392.38
2019-01-11T03:10:55.763Z,101389.73
2019-01-11T03:13:24.489Z,101370.61
2019-01-11T03:15:53.058Z,101396.24
2019-01-11T03:18:21.712Z,101388.56
2019-01-11T03:20:50.338Z,101377.98
2019-01-11T03:23:18.922Z,101377.98
2019-01-11T03:25:47.565Z,101380.50
2019-01-11T03:28:16.698Z,101378.20
2019-01-11T03:30:45.383Z,101382.55
2019-01-11T03:33:13.981Z,101383.17
2019-01-11T03:35:42.596Z,101380.03
2019-01-11T03:38:11.211Z,101371.49
2019-01-11T03:40:39.856Z,101372.83
2019-01-11T03:43:08.454Z,101378.73
2019-01-11T03:45:37.112Z,101373.66
2019-01-11T03:48:05.789Z,101377.76
2019-01-11T03:50:34.491Z,101377.41
2019-01-11T03:53:03.088Z,101377.51
2019-01-11T03:55:31.767Z,101378.25
2019-01-11T03:58:00.522Z,101374.86
2019-01-11T04:00:29.112Z,101375.37
2019-01-11T04:02:57.714Z,101371.87
2019-01-11T04:05:26.376Z,101380.38
2019-01-11T04:07:55.903Z,101375.10
2019-01-11T04:10:25.039Z,101377.15
2019-01-11T04:12:53.731Z,101369.45
2019-01-11T04:15:23.130Z,101380.41
2019-01-11T04:18:29.533Z,101375.97
2019-01-11T04:20:58.205Z,101369.84
2019-01-11T04:23:26.859Z,101371.74
2019-01-11T04:25:56.057Z,101377.15
2019-01-11T04:28:24.679Z,101314.40
2019-01-11T04:30:53.364Z,101375.36
2019-01-11T04:33:22.011Z,101369.84
2019-01-11T04:35:50.917Z,101371.52
2019-01-11T04:38:19.546Z,101372.00
2019-01-11T04:40:48.532Z,101375.11
2019-01-11T04:43:17.122Z,101366.36
2019-01-11T04:45:45.817Z,101366.23
2019-01-11T04:48:14.484Z,101365.73
2019-01-11T04:50:43.304Z,101365.26
2019-01-11T04:53:11.917Z,101363.30
2019-01-11T04:55:40.571Z,101365.37
2019-01-11T04:58:09.220Z,101365.83
2019-01-11T05:00:37.913Z,101358.00
2019-01-11T05:03:06.540Z,101364.30
2019-01-11T05:05:35.185Z,101357.33
2019-01-11T05:08:03.887Z,101360.69
2019-01-11T05:10:32.493Z,101363.66
2019-01-11T05:13:19.616Z,101362.34
2019-01-11T05:15:48.267Z,101366.20
2019-01-11T05:18:16.882Z,101373.88
2019-01-11T05:20:45.522Z,101367.38
2019-01-11T05:23:14.192Z,101363.05
2019-01-11T05:25:42.825Z,101373.16
2019-01-11T05:28:11.489Z,101367.62
2019-01-11T05:30:40.145Z,101364.23
2019-01-11T05:33:08.754Z,101361.33
2019-01-11T05:35:37.494Z,101365.41
2019-01-11T05:38:06.188Z,101365.66
2019-01-11T05:40:34.819Z,101367.31
2019-01-11T05:43:03.586Z,101360.01
2019-01-11T05:45:32.235Z,101356.23
2019-01-11T05:48:00.840Z,101362.14
2019-01-11T05:50:29.607Z,101361.64
2019-01-11T05:52:58.493Z,101358.25
2019-01-11T05:55:45.185Z,101344.66
2019-01-11T05:58:41.981Z,101339.41
2019-01-11T06:01:10.914Z,101338.42
2019-01-11T06:03:39.519Z,101348.00
2019-01-11T06:06:08.229Z,101346.56
2019-01-11T06:08:37.437Z,101346.68
2019-01-11T06:11:06.023Z,101352.80
2019-01-11T06:13:34.656Z,101340.80
2019-01-11T06:16:03.482Z,101336.20
2019-01-11T06:18:32.116Z,101336.59
2019-01-11T06:21:00.709Z,101332.30
2019-01-11T06:23:29.453Z,101337.34
2019-01-11T06:25:58.131Z,101330.38
2019-01-11T06:28:26.762Z,101327.97
2019-01-11T06:30:55.949Z,101331.84
2019-01-11T06:33:24.692Z,101327.64
2019-01-11T06:35:53.495Z,101323.53
2019-01-11T06:38:22.145Z,101331.81
2019-01-11T06:40:50.764Z,101324.27
2019-01-11T06:43:19.383Z,101332.83
2019-01-11T06:45:48.017Z,101319.70
2019-01-11T06:48:29.092Z,101329.70
2019-01-11T06:50:57.710Z,101327.63
2019-01-11T06:53:26.474Z,101327.03
2019-01-11T06:55:56.003Z,101330.55
2019-01-11T06:58:24.591Z,101328.86
2019-01-11T07:00:53.163Z,101309.61
2019-01-11T07:03:21.905Z,101320.94
2019-01-11T07:05:50.614Z,101320.94
2019-01-11T07:08:19.209Z,101311.56
2019-01-11T07:10:47.937Z,101311.69
2019-01-11T07:13:16.569Z,101309.72
2019-01-11T07:15:45.223Z,101317.05
2019-01-11T07:18:13.894Z,101311.55
2019-01-11T07:20:42.969Z,101314.91
2019-01-11T07:23:12.467Z,101302.55
2019-01-11T07:25:41.193Z,101312.03
2019-01-11T07:28:13.614Z,101302.05
2019-01-11T07:31:05.246Z,101297.36
2019-01-11T07:33:33.934Z,101306.51
2019-01-11T07:36:20.745Z,101310.94
2019-01-11T07:38:49.371Z,101314.55
2019-01-11T07:41:17.993Z,101309.61
2019-01-11T07:43:46.753Z,101320.28
2019-01-11T07:46:15.354Z,101229.63
2019-01-11T07:48:44.007Z,101313.48
2019-01-11T07:51:12.591Z,101304.84
2019-01-11T07:53:41.207Z,101300.98
2019-01-11T07:56:09.894Z,101299.04
2019-01-11T07:58:38.547Z,101306.16
2019-01-11T08:01:07.288Z,101310.16
2019-01-11T08:03:36.017Z,101307.03
2019-01-11T08:06:04.821Z,101314.95
2019-01-11T08:08:33.430Z,101310.24
2019-01-11T08:11:03.131Z,101308.58
2019-01-11T08:13:31.817Z,101306.88
2019-01-11T08:16:00.494Z,101300.77
2019-01-11T08:18:29.101Z,101294.63
2019-01-11T08:20:57.889Z,101291.75
2019-01-11T08:23:26.610Z,101296.22
2019-01-11T08:25:56.427Z,101292.13
2019-01-11T08:28:25.323Z,101296.91
2019-01-11T08:30:54.181Z,101292.84
2019-01-11T08:33:23.038Z,101289.23
2019-01-11T08:35:51.735Z,101291.50
2019-01-11T08:38:21.575Z,101289.09
2019-01-11T08:40:50.153Z,101293.07
2019-01-11T08:43:18.875Z,101300.05
2019-01-11T08:45:47.663Z,101303.55
2019-01-11T08:48:16.349Z,101296.23
2019-01-11T08:50:46.598Z,101289.14
2019-01-11T08:53:15.370Z,101301.27
2019-01-11T08:55:44.044Z,101290.45
2019-01-11T08:58:12.675Z,101284.55
2019-01-11T09:00:41.364Z,101291.77
2019-01-11T09:03:10.000Z,101288.16
2019-01-11T09:05:38.605Z,101287.08
2019-01-11T09:08:07.327Z,101284.09
2019-01-11T09:10:35.921Z,101276.98
2019-01-11T09:13:04.618Z,101273.25
2019-01-11T09:15:34.005Z,101274.59
2019-01-11T09:18:13.040Z,101277.09
2019-01-11T09:20:42.653Z,101281.06
2019-01-11T09:23:12.770Z,101281.77
2019-01-11T09:25:41.442Z,101278.91
2019-01-11T09:28:10.171Z,101278.82
2019-01-11T09:34:08.337Z,101281.09
2019-01-11T09:36:36.954Z,101272.20
2019-01-11T09:39:08.587Z,101276.78
2019-01-11T09:41:37.284Z,101287.47
2019-01-11T09:44:06.108Z,101283.50
2019-01-11T09:46:34.709Z,101284.00
2019-01-11T09:49:05.253Z,101285.55
2019-01-11T09:51:33.836Z,101288.80
2019-01-11T09:54:02.479Z,101286.52
2019-01-11T09:56:31.068Z,101287.61
2019-01-11T09:58:59.755Z,101287.26
2019-01-11T10:01:28.440Z,101290.00
2019-01-11T10:03:57.125Z,101286.30
2019-01-11T10:06:25.710Z,101277.38
2019-01-11T10:08:54.961Z,101273.30
2019-01-11T10:11:23.597Z,101272.81
2019-01-11T10:13:52.517Z,101274.13
2019-01-11T10:16:21.174Z,101279.42
2019-01-11T10:18:49.801Z,101268.01
2019-01-11T10:21:22.337Z,101269.20
2019-01-11T10:23:48.783Z,101273.87
2019-01-11T10:26:17.873Z,101270.05
2019-01-11T10:28:47.922Z,101269.91
2019-01-11T10:31:16.725Z,101274.36
2019-01-11T10:33:45.354Z,101277.98
2019-01-11T10:36:13.954Z,101276.75
2019-01-11T10:38:42.638Z,101272.64
2019-01-11T10:41:11.290Z,101181.14
2019-01-11T10:43:39.979Z,101269.42
2019-01-11T10:46:19.854Z,101252.72
2019-01-11T10:48:48.506Z,101260.64
2019-01-11T10:51:19.071Z,101256.69
2019-01-11T10:53:47.496Z,101248.27
2019-01-11T10:56:16.238Z,101247.03
2019-01-11T10:58:45.050Z,101244.86
2019-01-11T11:01:13.923Z,101247.50
2019-01-11T11:03:42.694Z,101249.29
2019-01-11T11:06:11.296Z,101241.93
2019-01-11T11:08:39.975Z,101242.52
2019-01-11T11:11:08.579Z,101241.78
2019-01-11T11:13:37.584Z,101230.97
2019-01-11T11:16:06.529Z,101235.00
2019-01-11T11:18:35.269Z,101235.49
2019-01-11T11:21:03.887Z,101235.07
2019-01-11T11:23:32.553Z,101230.62
2019-01-11T11:26:01.390Z,101228.70
2019-01-11T11:28:30.066Z,101223.76
2019-01-11T11:30:58.755Z,101214.64
2019-01-11T11:33:27.479Z,101209.35
2019-01-11T11:35:56.818Z,101205.14
2019-01-11T11:38:25.472Z,101206.55
2019-01-11T11:40:54.520Z,101213.52
2019-01-11T11:43:23.127Z,101213.74
2019-01-11T11:45:51.723Z,101201.08
2019-01-11T11:48:20.356Z,101207.34
2019-01-11T11:50:49.216Z,101200.00
2019-01-11T11:53:17.863Z,101206.63
2019-01-11T11:55:46.595Z,101194.11
2019-01-11T11:58:15.233Z,101194.17
2019-01-11T12:00:43.898Z,101201.73
2019-01-11T12:03:12.503Z,101203.33
2019-01-11T12:05:41.161Z,101192.23
2019-01-11T12:08:09.898Z,101187.83
2019-01-11T12:10:38.587Z,101182.34
2019-01-11T12:13:07.346Z,101182.31
2019-01-11T12:15:35.976Z,101185.72
2019-01-11T12:18:04.626Z,101182.15
2019-01-11T12:20:33.610Z,101178.88
2019-01-11T12:23:02.269Z,101170.48
2019-01-11T12:25:30.859Z,101173.58
2019-01-11T12:27:59.680Z,101168.91
2019-01-11T12:30:28.448Z,101163.83
2019-01-11T12:32:57.042Z,101161.45
2019-01-11T12:35:25.764Z,101154.78
2019-01-11T12:37:54.529Z,101169.28
2019-01-11T12:40:23.331Z,101168.59
2019-01-11T12:42:52.067Z,101155.70
2019-01-11T12:45:21.075Z,101150.75
2019-01-11T12:47:49.741Z,101146.91
2019-01-11T12:50:20.927Z,101148.09
2019-01-11T12:52:49.572Z,101155.31
2019-01-11T12:55:18.468Z,101154.20
2019-01-11T12:57:47.248Z,101147.75
2019-01-11T13:00:16.792Z,101140.05
2019-01-11T13:02:45.491Z,101133.34
2019-01-11T13:05:19.244Z,101136.31
2019-01-11T13:07:48.100Z,101135.20
2019-01-11T13:10:18.065Z,101125.09
2019-01-11T13:12:46.839Z,101128.73
2019-01-11T13:15:23.046Z,101126.39
2019-01-11T13:17:51.706Z,101113.59
2019-01-11T13:20:21.558Z,101119.87
2019-01-11T13:22:50.727Z,101116.94
2019-01-11T13:25:19.440Z,101111.74
2019-01-11T13:27:48.186Z,101107.63
2019-01-11T13:30:17.523Z,101120.30
2019-01-11T13:32:46.213Z,101113.23
2019-01-11T13:35:14.891Z,101115.06
2019-01-11T13:37:43.631Z,101117.72
2019-01-11T13:40:14.815Z,101111.23
2019-01-11T13:42:43.562Z,101113.81
2019-01-11T13:45:12.280Z,101117.20
2019-01-11T13:47:43.090Z,101104.98
2019-01-11T13:50:33.714Z,101120.97
2019-01-11T13:53:02.378Z,101113.06
2019-01-11T13:55:31.040Z,101113.14
2019-01-11T13:57:59.768Z,101107.01
2019-01-11T14:00:28.467Z,101113.45
2019-01-11T14:02:57.364Z,101121.41
2019-01-11T14:05:26.107Z,101051.49
2019-01-11T14:07:54.839Z,101121.57
2019-01-11T14:10:23.479Z,101126.62
2019-01-11T14:12:52.441Z,101058.66
2019-01-11T14:15:21.081Z,101132.17
2019-01-11T14:17:49.845Z,101117.40
2019-01-11T14:20:18.583Z,101134.82
2019-01-11T14:22:47.224Z,101123.08
2019-01-11T14:25:17.150Z,101131.09
2019-01-11T14:27:46.342Z,101128.00
2019-01-11T14:30:15.554Z,101125.78
2019-01-11T14:32:44.423Z,101117.09
2019-01-11T14:35:13.164Z,101054.23
2019-01-11T14:37:41.804Z,101129.72
2019-01-11T14:40:12.694Z,101126.02
2019-01-11T14:42:41.409Z,101131.63
2019-01-11T14:45:11.888Z,101136.55
2019-01-11T14:47:40.671Z,101140.03
2019-01-11T14:50:12.295Z,101138.52
2019-01-11T14:52:40.949Z,101127.95
2019-01-11T14:55:09.547Z,101119.80
2019-01-11T14:57:38.205Z,101130.84
2019-01-11T15:00:10.439Z,101121.52
2019-01-11T15:02:39.167Z,101131.38
2019-01-11T15:05:09.462Z,101123.42
2019-01-11T15:07:38.235Z,101128.87
2019-01-11T15:10:09.157Z,101125.94
2019-01-11T15:12:37.883Z,101121.33
2019-01-11T15:15:08.131Z,101121.33
2019-01-11T15:17:36.799Z,101128.73
2019-01-11T15:20:07.123Z,101127.66
2019-01-11T15:22:35.962Z,101124.75
2019-01-11T15:25:09.117Z,101128.44
2019-01-11T15:27:38.023Z,101119.16
2019-01-11T15:30:08.607Z,101116.59
2019-01-11T15:32:37.297Z,101123.14
2019-01-11T15:35:06.487Z,101107.42
2019-01-11T15:37:35.148Z,101118.03
2019-01-11T15:40:04.865Z,101111.75
2019-01-11T15:42:33.449Z,101113.07
2019-01-11T15:45:02.089Z,101108.30
2019-01-11T15:47:30.805Z,101103.10
2019-01-11T15:49:59.474Z,101098.83
2019-01-11T15:52:33.304Z,101026.47
2019-01-11T15:54:58.555Z,101105.98
2019-01-11T15:57:42.715Z,101097.05
2019-01-11T16:00:18.719Z,101102.06
2019-01-11T16:02:47.439Z,101101.48
2019-01-11T16:05:16.121Z,101097.59
2019-01-11T16:07:45.006Z,101095.49
2019-01-11T16:10:17.093Z,101097.16
2019-01-11T16:12:48.781Z,101101.09
2019-01-11T16:16:01.630Z,101098.23
2019-01-11T16:18:32.012Z,101094.70
2019-01-11T16:21:02.036Z,101099.52
2019-01-11T16:23:30.699Z,101093.58
2019-01-11T16:25:59.596Z,101098.39
2019-01-11T16:28:28.612Z,101107.47
2019-01-11T16:30:57.379Z,101095.19
2019-01-11T16:33:26.134Z,101090.00
2019-01-11T16:35:54.960Z,101100.74
2019-01-11T16:38:23.633Z,101099.37
2019-01-11T16:40:52.267Z,101101.57
2019-01-11T16:43:21.125Z,101097.84
2019-01-11T16:45:50.084Z,101094.22
2019-01-11T16:48:18.655Z,101090.67
2019-01-11T16:50:47.530Z,101097.31
2019-01-11T16:53:16.225Z,101088.66
2019-01-11T16:55:45.035Z,101092.09
2019-01-11T16:58:15.325Z,101091.37
2019-01-11T17:00:44.078Z,101099.96
2019-01-11T17:03:12.898Z,101098.14
2019-01-11T17:05:41.494Z,101101.86
2019-01-11T17:08:10.449Z,101084.88
2019-01-11T17:10:39.386Z,101098.87
2019-01-11T17:13:08.409Z,101108.36
2019-01-11T17:15:37.162Z,101104.32
2019-01-11T17:18:05.926Z,101097.16
2019-01-11T17:20:34.628Z,101103.88
2019-01-11T17:23:03.722Z,101108.16
2019-01-11T17:25:32.329Z,101105.27
2019-01-11T17:28:01.987Z,101102.27
2019-01-11T17:30:30.659Z,101090.19
2019-01-11T17:32:59.257Z,101021.17
2019-01-11T17:35:28.002Z,101108.98
2019-01-11T17:37:57.415Z,101107.12
2019-01-11T17:40:26.214Z,101098.47
2019-01-11T17:42:54.956Z,101090.38
2019-01-11T17:45:23.788Z,101091.34
2019-01-11T17:47:52.514Z,101098.66
2019-01-11T17:50:21.678Z,101098.06
2019-01-11T17:52:50.366Z,101096.36
2019-01-11T17:55:19.129Z,101099.30
2019-01-11T17:57:47.813Z,101098.31
2019-01-11T18:00:19.495Z,101084.36
2019-01-11T18:02:48.174Z,101093.70
2019-01-11T18:05:17.343Z,101098.41
2019-01-11T18:07:46.382Z,101104.46
2019-01-11T18:10:15.072Z,101090.22
2019-01-11T18:12:43.777Z,101085.20
2019-01-11T18:15:14.798Z,101098.17
2019-01-11T18:17:43.445Z,101096.22
2019-01-11T18:20:25.291Z,101104.06
2019-01-11T18:22:54.124Z,101098.55
2019-01-11T18:25:22.741Z,101089.45
2019-01-11T18:27:51.408Z,101097.09
2019-01-11T18:30:20.084Z,101105.11
2019-01-11T18:32:48.867Z,101105.11
2019-01-11T18:35:17.543Z,101093.02
2019-01-11T18:37:46.290Z,101100.69
2019-01-11T18:40:17.640Z,101086.81
2019-01-11T18:42:46.314Z,101093.79
2019-01-11T18:45:14.988Z,101091.17
2019-01-11T18:47:43.587Z,101088.97
2019-01-11T18:50:14.911Z,101088.83
2019-01-11T18:52:43.609Z,101091.90
2019-01-11T18:55:12.291Z,101088.26
2019-01-11T18:57:40.990Z,101087.20
2019-01-11T19:00:13.103Z,101084.55
2019-01-11T19:02:41.953Z,101085.64
2019-01-11T19:05:11.720Z,101077.91
2019-01-11T19:07:45.920Z,101083.59
2019-01-11T19:10:12.403Z,101079.88
2019-01-11T19:12:41.071Z,101085.23
2019-01-11T19:15:12.034Z,101085.23
2019-01-11T19:17:40.689Z,101083.75
2019-01-11T19:20:21.126Z,101081.81
2019-01-11T19:22:49.803Z,101081.66
2019-01-11T19:25:18.528Z,101076.02
2019-01-11T19:27:48.210Z,101074.30
2019-01-11T19:30:21.851Z,101086.98
2019-01-11T19:32:50.539Z,101078.13
2019-01-11T19:35:19.285Z,101079.88
2019-01-11T19:37:48.013Z,101077.37
2019-01-11T19:40:16.795Z,101086.85
2019-01-11T19:42:45.693Z,101076.35
2019-01-11T19:45:14.361Z,101072.78
2019-01-11T19:47:43.386Z,101078.13
2019-01-11T19:50:17.388Z,101080.34
2019-01-11T19:52:46.147Z,101088.03
2019-01-11T19:55:15.015Z,101081.05
2019-01-11T19:57:43.669Z,101082.99
2019-01-11T20:00:24.245Z,101076.35
2019-01-11T20:02:53.489Z,101083.41
2019-01-11T20:05:22.396Z,101071.99
2019-01-11T20:07:51.003Z,101077.03
2019-01-11T20:10:38.989Z,101078.41
2019-01-11T20:13:07.667Z,101076.45
2019-01-11T20:15:36.286Z,101065.88
2019-01-11T20:18:05.304Z,101072.59
2019-01-11T20:20:34.000Z,101076.56
2019-01-11T20:23:02.905Z,101078.28
2019-01-11T20:25:31.615Z,101078.28
2019-01-11T20:28:00.215Z,101078.98
2019-01-11T20:30:29.153Z,101080.27
2019-01-11T20:32:57.801Z,101074.68
2019-01-11T20:35:26.453Z,101080.11
2019-01-11T20:37:55.147Z,101089.89
2019-01-11T20:40:23.855Z,101086.93
2019-01-11T20:42:52.664Z,101080.99
2019-01-11T20:45:21.678Z,101093.83
2019-01-11T20:47:50.312Z,101090.89
2019-01-11T20:50:23.663Z,101097.08
2019-01-11T20:52:52.524Z,101091.82
2019-01-11T20:55:21.214Z,101074.97
2019-01-11T20:57:49.950Z,101086.16
2019-01-11T21:00:23.738Z,101081.46
2019-01-11T21:02:52.388Z,101086.84
2019-01-11T21:05:21.282Z,101086.84
2019-01-11T21:07:49.946Z,101068.88
2019-01-11T21:10:18.777Z,101089.01
2019-01-11T21:12:47.515Z,101075.47
2019-01-11T21:15:16.465Z,101079.17
2019-01-11T21:17:45.121Z,101084.86
2019-01-11T21:20:15.273Z,101085.85
2019-01-11T21:22:44.049Z,101080.59
2019-01-11T21:25:13.539Z,101085.70
2019-01-11T21:27:42.273Z,101088.27
2019-01-11T21:30:19.410Z,101086.00
2019-01-11T21:32:48.500Z,101086.59
2019-01-11T21:35:17.359Z,101079.17
2019-01-11T21:37:46.128Z,101076.20
2019-01-11T21:40:16.746Z,101079.86
2019-01-11T21:42:45.383Z,101079.17
2019-01-11T21:45:14.217Z,101089.59
2019-01-11T21:47:42.891Z,101080.75
2019-01-11T21:50:14.127Z,101089.00
2019-01-11T21:52:42.896Z,101075.95
2019-01-11T21:55:12.402Z,101082.26
2019-01-11T21:57:41.218Z,101083.03
2019-01-11T22:00:19.178Z,101087.73
2019-01-11T22:02:47.842Z,101087.34
2019-01-11T22:05:16.493Z,101084.34
2019-01-11T22:07:45.142Z,101088.02
2019-01-11T22:10:14.205Z,101088.02
2019-01-11T22:12:42.823Z,101086.16
2019-01-11T22:15:13.934Z,101086.19
2019-01-11T22:17:42.569Z,101094.72
2019-01-11T22:20:12.771Z,101098.41
2019-01-11T22:22:41.407Z,101102.14
2019-01-11T22:25:11.384Z,101104.19
2019-01-11T22:27:40.559Z,101097.91
2019-01-11T22:30:15.968Z,101098.16
2019-01-11T22:32:44.797Z,101096.05
2019-01-11T22:35:15.967Z,101103.38
2019-01-11T22:37:44.776Z,101095.71
2019-01-11T22:40:16.031Z,101108.30
2019-01-11T22:42:45.224Z,101108.67
2019-01-11T22:45:14.488Z,101104.96
2019-01-11T22:47:43.132Z,101103.97
2019-01-11T22:50:12.275Z,101038.16
2019-01-11T22:52:41.147Z,101092.22
2019-01-11T22:55:10.890Z,101097.88
2019-01-11T22:57:39.683Z,101087.00
2019-01-11T23:00:44.402Z,101100.88
2019-01-11T23:03:17.421Z,101093.83
2019-01-11T23:05:46.798Z,101094.79
2019-01-11T23:08:18.848Z,101103.94
2019-01-11T23:11:12.453Z,101098.56
2019-01-11T23:13:41.216Z,101109.60
2019-01-11T23:16:36.042Z,101096.64
2019-01-11T23:19:05.207Z,101092.00
2019-01-11T23:21:33.858Z,101091.97
2019-01-11T23:24:02.701Z,101096.58
2019-01-11T23:26:33.454Z,101094.48
2019-01-11T23:29:02.510Z,101091.02
2019-01-11T23:31:31.312Z,101095.55
2019-01-11T23:33:59.950Z,101099.45
2019-01-11T23:36:28.609Z,101104.77
2019-01-11T23:38:57.275Z,101101.30
2019-01-11T23:41:26.458Z,101102.25
2019-01-11T23:43:55.073Z,101109.98
2019-01-11T23:46:23.708Z,101109.98
2019-01-11T23:48:52.334Z,101102.41
2019-01-11T23:51:20.942Z,101104.18
2019-01-11T23:53:50.752Z,101107.31
2019-01-11T23:56:19.467Z,101103.77
2019-01-11T23:58:48.220Z,101103.92
